sensor_id;sensor_type;location;lat;lon;timestamp;pressure;altitude;pressure_sealevel;temperature
64175;BMP280;50469;50.438;-119.202;2023-08-20T00:00:43;97186.09;;;24.53
64175;BMP280;50469;50.438;-119.202;2023-08-20T00:03:12;97189.84;;;24.67
64175;BMP280;50469;50.438;-119.202;2023-08-20T00:05:41;97181.88;;;24.52
64175;BMP280;50469;50.438;-119.202;2023-08-20T00:08:09;97177.66;;;24.45
64175;BMP280;50469;50.438;-119.202;2023-08-20T00:10:37;97178.63;;;24.36
64175;BMP280;50469;50.438;-119.202;2023-08-20T00:13:05;97176.91;;;24.39
64175;BMP280;50469;50.438;-119.202;2023-08-20T00:15:33;97177.38;;;24.49
64175;BMP280;50469;50.438;-119.202;2023-08-20T00:18:04;97176.91;;;24.22
64175;BMP280;50469;50.438;-119.202;2023-08-20T00:20:33;97174.44;;;24.35
64175;BMP280;50469;50.438;-119.202;2023-08-20T00:23:01;97170.19;;;24.51
64175;BMP280;50469;50.438;-119.202;2023-08-20T00:25:30;97156.75;;;24.48
64175;BMP280;50469;50.438;-119.202;2023-08-20T00:27:58;97164.22;;;24.30
64175;BMP280;50469;50.438;-119.202;2023-08-20T00:30:30;97174.16;;;24.33
64175;BMP280;50469;50.438;-119.202;2023-08-20T00:32:58;97166.72;;;24.40
64175;BMP280;50469;50.438;-119.202;2023-08-20T00:35:26;97163.97;;;24.34
64175;BMP280;50469;50.438;-119.202;2023-08-20T00:37:54;97163.97;;;24.34
64175;BMP280;50469;50.438;-119.202;2023-08-20T00:40:22;97170.91;;;24.41
64175;BMP280;50469;50.438;-119.202;2023-08-20T00:42:50;97167.47;;;24.40
64175;BMP280;50469;50.438;-119.202;2023-08-20T00:45:18;97169.94;;;24.32
64175;BMP280;50469;50.438;-119.202;2023-08-20T00:47:47;97166.97;;;24.25
64175;BMP280;50469;50.438;-119.202;2023-08-20T00:50:18;97157.75;;;24.28
64175;BMP280;50469;50.438;-119.202;2023-08-20T00:52:47;97176.16;;;24.27
64175;BMP280;50469;50.438;-119.202;2023-08-20T00:55:15;97169.44;;;24.17
64175;BMP280;50469;50.438;-119.202;2023-08-20T00:57:43;97157.50;;;24.20
64175;BMP280;50469;50.438;-119.202;2023-08-20T01:00:12;97159.25;;;24.12
64175;BMP280;50469;50.438;-119.202;2023-08-20T01:02:40;97158.00;;;24.07
64175;BMP280;50469;50.438;-119.202;2023-08-20T01:05:11;97164.19;;;24.08
64175;BMP280;50469;50.438;-119.202;2023-08-20T01:10:39;97164.19;;;24.08
64175;BMP280;50469;50.438;-119.202;2023-08-20T01:13:07;97163.44;;;24.02
64175;BMP280;50469;50.438;-119.202;2023-08-20T01:15:36;97159.00;;;23.99
64175;BMP280;50469;50.438;-119.202;2023-08-20T01:18:04;97161.19;;;24.00
64175;BMP280;50469;50.438;-119.202;2023-08-20T01:20:39;97159.22;;;23.89
64175;BMP280;50469;50.438;-119.202;2023-08-20T01:26:10;97166.66;;;23.83
64175;BMP280;50469;50.438;-119.202;2023-08-20T01:28:42;97157.22;;;23.73
64175;BMP280;50469;50.438;-119.202;2023-08-20T01:31:10;97151.97;;;23.70
64175;BMP280;50469;50.438;-119.202;2023-08-20T01:33:40;97154.44;;;23.62
64175;BMP280;50469;50.438;-119.202;2023-08-20T01:36:09;97147.47;;;23.61
64175;BMP280;50469;50.438;-119.202;2023-08-20T01:38:37;97144.22;;;23.57
64175;BMP280;50469;50.438;-119.202;2023-08-20T01:41:05;97145.22;;;23.48
64175;BMP280;50469;50.438;-119.202;2023-08-20T01:43:36;97143.44;;;23.45
64175;BMP280;50469;50.438;-119.202;2023-08-20T01:46:06;97140.69;;;23.45
64175;BMP280;50469;50.438;-119.202;2023-08-20T01:48:37;97139.91;;;23.28
64175;BMP280;50469;50.438;-119.202;2023-08-20T01:51:06;97140.66;;;23.28
64175;BMP280;50469;50.438;-119.202;2023-08-20T01:53:35;97147.06;;;23.20
64175;BMP280;50469;50.438;-119.202;2023-08-20T01:56:03;97144.59;;;23.22
64175;BMP280;50469;50.438;-119.202;2023-08-20T01:58:32;97146.09;;;23.17
64175;BMP280;50469;50.438;-119.202;2023-08-20T02:01:00;97137.63;;;23.15
64175;BMP280;50469;50.438;-119.202;2023-08-20T02:03:28;97139.84;;;23.11
64175;BMP280;50469;50.438;-119.202;2023-08-20T02:05:56;97140.03;;;23.02
64175;BMP280;50469;50.438;-119.202;2023-08-20T02:08:25;97140.00;;;22.96
64175;BMP280;50469;50.438;-119.202;2023-08-20T02:11:03;97135.81;;;22.95
64175;BMP280;50469;50.438;-119.202;2023-08-20T02:13:32;97135.00;;;22.89
64175;BMP280;50469;50.438;-119.202;2023-08-20T02:16:03;97147.69;;;22.55
64175;BMP280;50469;50.438;-119.202;2023-08-20T02:18:32;97142.91;;;22.44
64175;BMP280;50469;50.438;-119.202;2023-08-20T02:21:01;97137.31;;;22.59
64175;BMP280;50469;50.438;-119.202;2023-08-20T02:23:29;97144.34;;;22.39
64175;BMP280;50469;50.438;-119.202;2023-08-20T02:25:57;97147.88;;;22.14
64175;BMP280;50469;50.438;-119.202;2023-08-20T02:28:25;97152.44;;;22.02
64175;BMP280;50469;50.438;-119.202;2023-08-20T02:30:53;97151.59;;;21.90
64175;BMP280;50469;50.438;-119.202;2023-08-20T02:33:22;97151.88;;;21.72
64175;BMP280;50469;50.438;-119.202;2023-08-20T02:35:50;97147.28;;;21.58
64175;BMP280;50469;50.438;-119.202;2023-08-20T02:38:18;97148.66;;;21.48
64175;BMP280;50469;50.438;-119.202;2023-08-20T02:40:47;97151.03;;;21.20
64175;BMP280;50469;50.438;-119.202;2023-08-20T02:43:15;97149.31;;;21.22
64175;BMP280;50469;50.438;-119.202;2023-08-20T02:45:43;97151.59;;;21.24
64175;BMP280;50469;50.438;-119.202;2023-08-20T02:48:13;97159.50;;;21.07
64175;BMP280;50469;50.438;-119.202;2023-08-20T02:50:41;97160.31;;;20.92
64175;BMP280;50469;50.438;-119.202;2023-08-20T02:53:09;97156.00;;;20.86
64175;BMP280;50469;50.438;-119.202;2023-08-20T02:55:38;97165.22;;;20.74
64175;BMP280;50469;50.438;-119.202;2023-08-20T02:58:06;97157.00;;;20.53
64175;BMP280;50469;50.438;-119.202;2023-08-20T03:00:34;97159.81;;;20.44
64175;BMP280;50469;50.438;-119.202;2023-08-20T03:03:02;97159.72;;;20.38
64175;BMP280;50469;50.438;-119.202;2023-08-20T03:05:32;97162.13;;;20.21
64175;BMP280;50469;50.438;-119.202;2023-08-20T03:08:01;97153.31;;;19.97
64175;BMP280;50469;50.438;-119.202;2023-08-20T03:10:29;97168.72;;;20.15
64175;BMP280;50469;50.438;-119.202;2023-08-20T03:13:01;97170.13;;;20.10
64175;BMP280;50469;50.438;-119.202;2023-08-20T03:15:33;97166.22;;;20.02
64175;BMP280;50469;50.438;-119.202;2023-08-20T03:18:01;97169.75;;;19.79
64175;BMP280;50469;50.438;-119.202;2023-08-20T03:20:30;97176.47;;;19.68
64175;BMP280;50469;50.438;-119.202;2023-08-20T03:23:00;97173.75;;;19.44
64175;BMP280;50469;50.438;-119.202;2023-08-20T03:25:28;97177.41;;;19.32
64175;BMP280;50469;50.438;-119.202;2023-08-20T03:27:56;97175.22;;;19.31
64175;BMP280;50469;50.438;-119.202;2023-08-20T03:30:27;97187.13;;;19.24
64175;BMP280;50469;50.438;-119.202;2023-08-20T03:32:55;97191.38;;;19.16
64175;BMP280;50469;50.438;-119.202;2023-08-20T03:35:24;97192.06;;;19.01
64175;BMP280;50469;50.438;-119.202;2023-08-20T03:37:52;97187.56;;;18.89
64175;BMP280;50469;50.438;-119.202;2023-08-20T03:40:20;97193.00;;;18.89
64175;BMP280;50469;50.438;-119.202;2023-08-20T03:42:48;97193.34;;;18.73
64175;BMP280;50469;50.438;-119.202;2023-08-20T03:45:17;97182.94;;;18.71
64175;BMP280;50469;50.438;-119.202;2023-08-20T03:47:45;97189.47;;;18.56
64175;BMP280;50469;50.438;-119.202;2023-08-20T03:50:13;97190.38;;;18.34
64175;BMP280;50469;50.438;-119.202;2023-08-20T03:52:41;97200.72;;;17.53
64175;BMP280;50469;50.438;-119.202;2023-08-20T03:55:09;97199.19;;;17.11
64175;BMP280;50469;50.438;-119.202;2023-08-20T03:57:37;97203.38;;;17.03
64175;BMP280;50469;50.438;-119.202;2023-08-20T04:00:06;97205.50;;;17.08
64175;BMP280;50469;50.438;-119.202;2023-08-20T04:02:34;97195.16;;;17.16
64175;BMP280;50469;50.438;-119.202;2023-08-20T04:05:03;97205.63;;;17.05
64175;BMP280;50469;50.438;-119.202;2023-08-20T04:07:31;97203.97;;;17.07
64175;BMP280;50469;50.438;-119.202;2023-08-20T04:10:00;97202.03;;;16.77
64175;BMP280;50469;50.438;-119.202;2023-08-20T04:12:30;97206.91;;;16.91
64175;BMP280;50469;50.438;-119.202;2023-08-20T04:14:58;97206.28;;;16.43
64175;BMP280;50469;50.438;-119.202;2023-08-20T04:17:27;97210.41;;;16.57
64175;BMP280;50469;50.438;-119.202;2023-08-20T04:19:55;97206.97;;;16.12
64175;BMP280;50469;50.438;-119.202;2023-08-20T04:22:23;97207.53;;;15.82
64175;BMP280;50469;50.438;-119.202;2023-08-20T04:24:51;97208.88;;;16.12
64175;BMP280;50469;50.438;-119.202;2023-08-20T04:27:19;97206.97;;;16.12
64175;BMP280;50469;50.438;-119.202;2023-08-20T04:29:47;97210.03;;;16.24
64175;BMP280;50469;50.438;-119.202;2023-08-20T04:32:15;97212.16;;;16.07
64175;BMP280;50469;50.438;-119.202;2023-08-20T04:34:46;97206.78;;;16.29
64175;BMP280;50469;50.438;-119.202;2023-08-20T04:37:15;97216.41;;;16.30
64175;BMP280;50469;50.438;-119.202;2023-08-20T04:39:43;97214.00;;;15.97
64175;BMP280;50469;50.438;-119.202;2023-08-20T04:42:11;97214.38;;;16.21
64175;BMP280;50469;50.438;-119.202;2023-08-20T04:44:40;97216.75;;;16.19
64175;BMP280;50469;50.438;-119.202;2023-08-20T04:47:11;97217.19;;;16.17
64175;BMP280;50469;50.438;-119.202;2023-08-20T04:49:40;97218.72;;;15.58
64175;BMP280;50469;50.438;-119.202;2023-08-20T04:52:11;97228.50;;;15.39
64175;BMP280;50469;50.438;-119.202;2023-08-20T04:54:39;97224.81;;;15.59
64175;BMP280;50469;50.438;-119.202;2023-08-20T04:57:07;97226.00;;;15.96
64175;BMP280;50469;50.438;-119.202;2023-08-20T04:59:36;97225.16;;;15.22
64175;BMP280;50469;50.438;-119.202;2023-08-20T05:02:07;97232.63;;;15.44
64175;BMP280;50469;50.438;-119.202;2023-08-20T05:04:36;97232.38;;;15.77
64175;BMP280;50469;50.438;-119.202;2023-08-20T05:07:04;97233.81;;;15.30
64175;BMP280;50469;50.438;-119.202;2023-08-20T05:09:33;97227.97;;;15.44
64175;BMP280;50469;50.438;-119.202;2023-08-20T05:12:02;97229.78;;;15.09
64175;BMP280;50469;50.438;-119.202;2023-08-20T05:14:30;97225.84;;;14.97
64175;BMP280;50469;50.438;-119.202;2023-08-20T05:16:58;97237.84;;;15.09
64175;BMP280;50469;50.438;-119.202;2023-08-20T05:19:27;97237.84;;;15.09
64175;BMP280;50469;50.438;-119.202;2023-08-20T05:21:56;97237.97;;;15.18
64175;BMP280;50469;50.438;-119.202;2023-08-20T05:24:25;97248.97;;;15.11
64175;BMP280;50469;50.438;-119.202;2023-08-20T05:27:13;97244.06;;;15.35
64175;BMP280;50469;50.438;-119.202;2023-08-20T05:29:42;97240.78;;;15.27
64175;BMP280;50469;50.438;-119.202;2023-08-20T05:32:10;97248.03;;;15.31
64175;BMP280;50469;50.438;-119.202;2023-08-20T05:34:39;97244.53;;;15.04
64175;BMP280;50469;50.438;-119.202;2023-08-20T05:37:07;97246.91;;;14.73
64175;BMP280;50469;50.438;-119.202;2023-08-20T05:39:42;97260.03;;;14.42
64175;BMP280;50469;50.438;-119.202;2023-08-20T05:42:10;97249.44;;;14.02
64175;BMP280;50469;50.438;-119.202;2023-08-20T05:44:39;97237.75;;;14.09
64175;BMP280;50469;50.438;-119.202;2023-08-20T05:47:07;97254.50;;;14.00
64175;BMP280;50469;50.438;-119.202;2023-08-20T05:49:35;97247.69;;;13.96
64175;BMP280;50469;50.438;-119.202;2023-08-20T05:52:03;97249.44;;;14.19
64175;BMP280;50469;50.438;-119.202;2023-08-20T05:54:31;97247.81;;;14.37
64175;BMP280;50469;50.438;-119.202;2023-08-20T05:57:00;97253.72;;;14.00
64175;BMP280;50469;50.438;-119.202;2023-08-20T05:59:34;97255.91;;;14.05
64175;BMP280;50469;50.438;-119.202;2023-08-20T06:02:02;97261.28;;;14.37
64175;BMP280;50469;50.438;-119.202;2023-08-20T06:04:31;97262.28;;;14.60
64175;BMP280;50469;50.438;-119.202;2023-08-20T06:06:59;97254.88;;;14.64
64175;BMP280;50469;50.438;-119.202;2023-08-20T06:09:27;97259.97;;;14.75
64175;BMP280;50469;50.438;-119.202;2023-08-20T06:11:56;97264.53;;;14.61
64175;BMP280;50469;50.438;-119.202;2023-08-20T06:14:28;97268.09;;;13.77
64175;BMP280;50469;50.438;-119.202;2023-08-20T06:16:56;97274.03;;;12.92
64175;BMP280;50469;50.438;-119.202;2023-08-20T06:19:25;97271.59;;;13.57
64175;BMP280;50469;50.438;-119.202;2023-08-20T06:21:53;97274.19;;;13.61
64175;BMP280;50469;50.438;-119.202;2023-08-20T06:24:22;97267.13;;;14.03
64175;BMP280;50469;50.438;-119.202;2023-08-20T06:26:50;97258.34;;;14.32
64175;BMP280;50469;50.438;-119.202;2023-08-20T06:29:19;97268.03;;;14.46
64175;BMP280;50469;50.438;-119.202;2023-08-20T06:31:48;97265.84;;;14.41
64175;BMP280;50469;50.438;-119.202;2023-08-20T06:34:16;97273.13;;;13.75
64175;BMP280;50469;50.438;-119.202;2023-08-20T06:36:44;97276.13;;;13.60
64175;BMP280;50469;50.438;-119.202;2023-08-20T06:39:13;97271.28;;;13.72
64175;BMP280;50469;50.438;-119.202;2023-08-20T06:41:41;97283.56;;;13.73
64175;BMP280;50469;50.438;-119.202;2023-08-20T06:44:10;97274.66;;;13.19
64175;BMP280;50469;50.438;-119.202;2023-08-20T06:46:38;97281.38;;;13.47
64175;BMP280;50469;50.438;-119.202;2023-08-20T06:49:06;97285.38;;;12.99
64175;BMP280;50469;50.438;-119.202;2023-08-20T06:51:35;97293.00;;;12.81
64175;BMP280;50469;50.438;-119.202;2023-08-20T06:54:04;97293.66;;;13.29
64175;BMP280;50469;50.438;-119.202;2023-08-20T06:56:33;97295.03;;;13.57
64175;BMP280;50469;50.438;-119.202;2023-08-20T06:59:01;97287.97;;;13.46
64175;BMP280;50469;50.438;-119.202;2023-08-20T07:01:30;97290.56;;;13.30
64175;BMP280;50469;50.438;-119.202;2023-08-20T07:03:58;97293.66;;;13.29
64175;BMP280;50469;50.438;-119.202;2023-08-20T07:06:29;97294.88;;;13.84
64175;BMP280;50469;50.438;-119.202;2023-08-20T07:08:57;97296.09;;;13.79
64175;BMP280;50469;50.438;-119.202;2023-08-20T07:11:25;97293.84;;;13.78
64175;BMP280;50469;50.438;-119.202;2023-08-20T07:13:53;97298.00;;;14.15
64175;BMP280;50469;50.438;-119.202;2023-08-20T07:16:22;97301.97;;;13.74
64175;BMP280;50469;50.438;-119.202;2023-08-20T07:18:51;97298.41;;;14.13
64175;BMP280;50469;50.438;-119.202;2023-08-20T07:21:19;97298.91;;;14.08
64175;BMP280;50469;50.438;-119.202;2023-08-20T07:23:51;97300.41;;;13.93
64175;BMP280;50469;50.438;-119.202;2023-08-20T07:26:19;97310.75;;;13.95
64175;BMP280;50469;50.438;-119.202;2023-08-20T07:28:47;97307.88;;;13.85
64175;BMP280;50469;50.438;-119.202;2023-08-20T07:31:15;97312.16;;;13.83
64175;BMP280;50469;50.438;-119.202;2023-08-20T07:33:50;97307.78;;;13.73
64175;BMP280;50469;50.438;-119.202;2023-08-20T07:36:19;97298.78;;;13.43
64175;BMP280;50469;50.438;-119.202;2023-08-20T07:38:49;97304.75;;;13.31
64175;BMP280;50469;50.438;-119.202;2023-08-20T07:41:18;97308.09;;;13.18
64175;BMP280;50469;50.438;-119.202;2023-08-20T07:43:47;97311.56;;;12.95
64175;BMP280;50469;50.438;-119.202;2023-08-20T07:46:15;97311.28;;;13.13
64175;BMP280;50469;50.438;-119.202;2023-08-20T07:48:44;97315.63;;;13.27
64175;BMP280;50469;50.438;-119.202;2023-08-20T07:51:12;97316.81;;;13.02
64175;BMP280;50469;50.438;-119.202;2023-08-20T07:53:40;97307.50;;;13.07
64175;BMP280;50469;50.438;-119.202;2023-08-20T07:56:09;97298.47;;;12.97
64175;BMP280;50469;50.438;-119.202;2023-08-20T07:58:37;97310.75;;;12.98
64175;BMP280;50469;50.438;-119.202;2023-08-20T08:01:05;97304.38;;;12.89
64175;BMP280;50469;50.438;-119.202;2023-08-20T08:03:33;97316.75;;;12.86
64175;BMP280;50469;50.438;-119.202;2023-08-20T08:06:01;97315.88;;;12.89
64175;BMP280;50469;50.438;-119.202;2023-08-20T08:08:30;97311.91;;;12.97
64175;BMP280;50469;50.438;-119.202;2023-08-20T08:10:58;97318.94;;;12.91
64175;BMP280;50469;50.438;-119.202;2023-08-20T08:13:26;97314.38;;;12.88
64175;BMP280;50469;50.438;-119.202;2023-08-20T08:15:55;97300.16;;;12.88
64175;BMP280;50469;50.438;-119.202;2023-08-20T08:18:26;97312.91;;;12.84
64175;BMP280;50469;50.438;-119.202;2023-08-20T08:20:54;97308.56;;;12.70
64175;BMP280;50469;50.438;-119.202;2023-08-20T08:23:22;97318.53;;;12.69
64175;BMP280;50469;50.438;-119.202;2023-08-20T08:25:50;97316.97;;;12.72
64175;BMP280;50469;50.438;-119.202;2023-08-20T08:28:19;97296.53;;;12.04
64175;BMP280;50469;50.438;-119.202;2023-08-20T08:30:47;97307.91;;;12.11
64175;BMP280;50469;50.438;-119.202;2023-08-20T08:33:15;97309.53;;;12.05
64175;BMP280;50469;50.438;-119.202;2023-08-20T08:35:46;97314.22;;;12.25
64175;BMP280;50469;50.438;-119.202;2023-08-20T08:38:14;97314.22;;;12.25
64175;BMP280;50469;50.438;-119.202;2023-08-20T08:40:42;97309.47;;;12.36
64175;BMP280;50469;50.438;-119.202;2023-08-20T08:43:14;97311.81;;;12.34
64175;BMP280;50469;50.438;-119.202;2023-08-20T08:45:47;97314.66;;;12.23
64175;BMP280;50469;50.438;-119.202;2023-08-20T08:48:15;97313.03;;;12.29
64175;BMP280;50469;50.438;-119.202;2023-08-20T08:50:44;97307.34;;;12.24
64175;BMP280;50469;50.438;-119.202;2023-08-20T08:53:13;97317.28;;;12.00
64175;BMP280;50469;50.438;-119.202;2023-08-20T08:55:41;97308.03;;;11.74
64175;BMP280;50469;50.438;-119.202;2023-08-20T08:58:12;97311.34;;;11.85
64175;BMP280;50469;50.438;-119.202;2023-08-20T09:00:41;97315.13;;;11.87
64175;BMP280;50469;50.438;-119.202;2023-08-20T09:03:09;97314.03;;;11.85
64175;BMP280;50469;50.438;-119.202;2023-08-20T09:05:54;97316.81;;;11.78
64175;BMP280;50469;50.438;-119.202;2023-08-20T09:08:29;97317.31;;;11.69
64175;BMP280;50469;50.438;-119.202;2023-08-20T09:10:58;97319.50;;;11.74
64175;BMP280;50469;50.438;-119.202;2023-08-20T09:13:38;97313.88;;;11.65
64175;BMP280;50469;50.438;-119.202;2023-08-20T09:16:10;97319.19;;;11.68
64175;BMP280;50469;50.438;-119.202;2023-08-20T09:18:40;97323.13;;;11.60
64175;BMP280;50469;50.438;-119.202;2023-08-20T09:21:10;97315.56;;;11.55
64175;BMP280;50469;50.438;-119.202;2023-08-20T09:23:39;97314.31;;;11.60
64175;BMP280;50469;50.438;-119.202;2023-08-20T09:26:07;97322.84;;;11.85
64175;BMP280;50469;50.438;-119.202;2023-08-20T09:28:43;97313.97;;;11.88
64175;BMP280;50469;50.438;-119.202;2023-08-20T09:31:12;97320.53;;;10.77
64175;BMP280;50469;50.438;-119.202;2023-08-20T09:33:51;97321.25;;;11.23
64175;BMP280;50469;50.438;-119.202;2023-08-20T09:36:30;97324.03;;;11.12
64175;BMP280;50469;50.438;-119.202;2023-08-20T09:38:58;97314.91;;;11.06
64175;BMP280;50469;50.438;-119.202;2023-08-20T09:41:26;97318.34;;;11.10
64175;BMP280;50469;50.438;-119.202;2023-08-20T09:43:57;97311.69;;;11.22
64175;BMP280;50469;50.438;-119.202;2023-08-20T09:46:27;97325.03;;;11.25
64175;BMP280;50469;50.438;-119.202;2023-08-20T09:48:58;97327.34;;;10.82
64175;BMP280;50469;50.438;-119.202;2023-08-20T09:51:27;97330.53;;;10.66
64175;BMP280;50469;50.438;-119.202;2023-08-20T09:54:12;97336.34;;;10.61
64175;BMP280;50469;50.438;-119.202;2023-08-20T09:56:43;97325.91;;;10.18
64175;BMP280;50469;50.438;-119.202;2023-08-20T09:59:14;97326.44;;;10.47
64175;BMP280;50469;50.438;-119.202;2023-08-20T10:01:43;97328.72;;;10.56
64175;BMP280;50469;50.438;-119.202;2023-08-20T10:04:11;97337.00;;;10.72
64175;BMP280;50469;50.438;-119.202;2023-08-20T10:06:40;97331.31;;;10.67
64175;BMP280;50469;50.438;-119.202;2023-08-20T10:09:09;97338.38;;;10.95
64175;BMP280;50469;50.438;-119.202;2023-08-20T10:11:39;97327.56;;;11.02
64175;BMP280;50469;50.438;-119.202;2023-08-20T10:14:08;97335.34;;;10.89
64175;BMP280;50469;50.438;-119.202;2023-08-20T10:16:37;97338.53;;;10.73
64175;BMP280;50469;50.438;-119.202;2023-08-20T10:19:06;97338.41;;;10.88
64175;BMP280;50469;50.438;-119.202;2023-08-20T10:21:35;97334.97;;;10.87
64175;BMP280;50469;50.438;-119.202;2023-08-20T10:24:05;97328.75;;;10.97
64175;BMP280;50469;50.438;-119.202;2023-08-20T10:26:34;97330.41;;;10.84
64175;BMP280;50469;50.438;-119.202;2023-08-20T10:29:40;97332.41;;;10.73
64175;BMP280;50469;50.438;-119.202;2023-08-20T10:32:12;97326.63;;;10.78
64175;BMP280;50469;50.438;-119.202;2023-08-20T10:34:44;97327.66;;;10.91
64175;BMP280;50469;50.438;-119.202;2023-08-20T10:37:26;97328.59;;;10.14
64175;BMP280;50469;50.438;-119.202;2023-08-20T10:39:55;97335.63;;;9.72
64175;BMP280;50469;50.438;-119.202;2023-08-20T10:42:27;97337.25;;;9.38
64175;BMP280;50469;50.438;-119.202;2023-08-20T10:47:44;97344.03;;;9.78
64175;BMP280;50469;50.438;-119.202;2023-08-20T10:50:16;97336.66;;;10.04
64175;BMP280;50469;50.438;-119.202;2023-08-20T10:52:49;97340.25;;;9.61
64175;BMP280;50469;50.438;-119.202;2023-08-20T10:55:24;97347.72;;;10.09
64175;BMP280;50469;50.438;-119.202;2023-08-20T10:57:57;97344.72;;;9.97
64175;BMP280;50469;50.438;-119.202;2023-08-20T11:00:25;97349.75;;;9.80
64175;BMP280;50469;50.438;-119.202;2023-08-20T11:02:54;97356.22;;;9.93
64175;BMP280;50469;50.438;-119.202;2023-08-20T11:05:23;97349.72;;;9.91
64175;BMP280;50469;50.438;-119.202;2023-08-20T11:07:51;97352.78;;;9.86
64175;BMP280;50469;50.438;-119.202;2023-08-20T11:10:20;97351.41;;;9.24
64175;BMP280;50469;50.438;-119.202;2023-08-20T11:12:48;97351.03;;;9.25
64175;BMP280;50469;50.438;-119.202;2023-08-20T11:15:16;97346.06;;;9.24
64175;BMP280;50469;50.438;-119.202;2023-08-20T11:17:46;97347.50;;;9.71
64175;BMP280;50469;50.438;-119.202;2023-08-20T11:20:18;97342.16;;;9.75
64175;BMP280;50469;50.438;-119.202;2023-08-20T11:22:47;97340.97;;;9.76
64175;BMP280;50469;50.438;-119.202;2023-08-20T11:25:15;97343.72;;;9.62
64175;BMP280;50469;50.438;-119.202;2023-08-20T11:27:44;97346.38;;;9.51
64175;BMP280;50469;50.438;-119.202;2023-08-20T11:30:12;97338.38;;;9.65
64175;BMP280;50469;50.438;-119.202;2023-08-20T11:32:40;97333.03;;;9.55
64175;BMP280;50469;50.438;-119.202;2023-08-20T11:35:09;97336.16;;;9.06
64175;BMP280;50469;50.438;-119.202;2023-08-20T11:37:37;97343.78;;;9.01
64175;BMP280;50469;50.438;-119.202;2023-08-20T11:40:08;97337.69;;;9.29
64175;BMP280;50469;50.438;-119.202;2023-08-20T11:42:36;97342.28;;;8.68
64175;BMP280;50469;50.438;-119.202;2023-08-20T11:45:04;97351.03;;;8.68
64175;BMP280;50469;50.438;-119.202;2023-08-20T11:47:42;97348.00;;;9.13
64175;BMP280;50469;50.438;-119.202;2023-08-20T11:50:10;97347.97;;;9.02
64175;BMP280;50469;50.438;-119.202;2023-08-20T11:52:39;97356.00;;;9.34
64175;BMP280;50469;50.438;-119.202;2023-08-20T11:55:08;97350.66;;;9.13
64175;BMP280;50469;50.438;-119.202;2023-08-20T11:57:36;97349.47;;;9.35
64175;BMP280;50469;50.438;-119.202;2023-08-20T12:00:06;97359.78;;;9.44
64175;BMP280;50469;50.438;-119.202;2023-08-20T12:02:34;97357.44;;;9.60
64175;BMP280;50469;50.438;-119.202;2023-08-20T12:05:07;97345.22;;;9.59
64175;BMP280;50469;50.438;-119.202;2023-08-20T12:07:35;97354.44;;;9.40
64175;BMP280;50469;50.438;-119.202;2023-08-20T12:10:24;97344.94;;;9.28
64175;BMP280;50469;50.438;-119.202;2023-08-20T12:12:54;97347.22;;;9.16
64175;BMP280;50469;50.438;-119.202;2023-08-20T12:15:23;97349.91;;;9.19
64175;BMP280;50469;50.438;-119.202;2023-08-20T12:18:03;97341.13;;;9.15
64175;BMP280;50469;50.438;-119.202;2023-08-20T12:20:34;97346.47;;;9.19
64175;BMP280;50469;50.438;-119.202;2023-08-20T12:23:05;97344.94;;;9.28
64175;BMP280;50469;50.438;-119.202;2023-08-20T12:25:35;97350.66;;;9.13
64175;BMP280;50469;50.438;-119.202;2023-08-20T12:28:04;97341.88;;;8.94
64175;BMP280;50469;50.438;-119.202;2023-08-20T12:30:32;97351.03;;;9.07
64175;BMP280;50469;50.438;-119.202;2023-08-20T12:33:04;97353.44;;;7.82
64175;BMP280;50469;50.438;-119.202;2023-08-20T12:35:34;97354.00;;;8.41
64175;BMP280;50469;50.438;-119.202;2023-08-20T12:38:02;97360.44;;;8.26
64175;BMP280;50469;50.438;-119.202;2023-08-20T12:40:31;97362.34;;;8.15
64175;BMP280;50469;50.438;-119.202;2023-08-20T12:42:59;97350.81;;;7.93
64175;BMP280;50469;50.438;-119.202;2023-08-20T12:45:30;97362.75;;;8.28
64175;BMP280;50469;50.438;-119.202;2023-08-20T12:47:58;97355.97;;;8.48
64175;BMP280;50469;50.438;-119.202;2023-08-20T12:50:29;97355.22;;;8.62
64175;BMP280;50469;50.438;-119.202;2023-08-20T12:52:57;97360.56;;;8.83
64175;BMP280;50469;50.438;-119.202;2023-08-20T12:55:25;97363.22;;;8.69
64175;BMP280;50469;50.438;-119.202;2023-08-20T12:57:55;97361.34;;;8.80
64175;BMP280;50469;50.438;-119.202;2023-08-20T13:00:24;97356.75;;;8.92
64175;BMP280;50469;50.438;-119.202;2023-08-20T13:02:54;97356.00;;;8.98
64175;BMP280;50469;50.438;-119.202;2023-08-20T13:05:23;97358.25;;;8.93
64175;BMP280;50469;50.438;-119.202;2023-08-20T13:07:52;97363.25;;;9.05
64175;BMP280;50469;50.438;-119.202;2023-08-20T13:10:21;97368.59;;;9.05
64175;BMP280;50469;50.438;-119.202;2023-08-20T13:12:53;97372.38;;;8.79
64175;BMP280;50469;50.438;-119.202;2023-08-20T13:15:22;97373.13;;;8.72
64175;BMP280;50469;50.438;-119.202;2023-08-20T13:17:51;97380.38;;;8.50
64175;BMP280;50469;50.438;-119.202;2023-08-20T13:20:20;97384.53;;;8.44
64175;BMP280;50469;50.438;-119.202;2023-08-20T13:22:49;97380.72;;;8.52
64175;BMP280;50469;50.438;-119.202;2023-08-20T13:25:18;97379.94;;;8.37
64175;BMP280;50469;50.438;-119.202;2023-08-20T13:27:47;97387.50;;;8.32
64175;BMP280;50469;50.438;-119.202;2023-08-20T13:30:15;97390.19;;;8.32
64175;BMP280;50469;50.438;-119.202;2023-08-20T13:32:43;97377.97;;;8.23
64175;BMP280;50469;50.438;-119.202;2023-08-20T13:35:15;97390.19;;;8.32
64175;BMP280;50469;50.438;-119.202;2023-08-20T13:37:43;97405.47;;;8.42
64175;BMP280;50469;50.438;-119.202;2023-08-20T13:40:12;97398.25;;;8.46
64175;BMP280;50469;50.438;-119.202;2023-08-20T13:42:41;97397.84;;;8.37
64175;BMP280;50469;50.438;-119.202;2023-08-20T13:45:10;97405.53;;;8.56
64175;BMP280;50469;50.438;-119.202;2023-08-20T13:47:38;97403.28;;;8.80
64175;BMP280;50469;50.438;-119.202;2023-08-20T13:50:06;97408.59;;;8.58
64175;BMP280;50469;50.438;-119.202;2023-08-20T13:52:35;97412.00;;;8.62
64175;BMP280;50469;50.438;-119.202;2023-08-20T13:55:04;97408.19;;;8.56
64175;BMP280;50469;50.438;-119.202;2023-08-20T13:57:32;97407.09;;;8.68